createdAt,value
2019-06-08T00:00:22.889Z,1.10
2019-06-08T00:02:51.602Z,0.90
2019-06-08T00:05:21.071Z,1.70
2019-06-08T00:07:50.169Z,1.20
2019-06-08T00:10:23.583Z,1.10
2019-06-08T00:12:49.550Z,1.30
2019-06-08T00:15:18.632Z,1.13
2019-06-08T00:17:47.399Z,1.20
2019-06-08T00:20:17.673Z,1.67
2019-06-08T00:22:46.376Z,1.17
2019-06-08T00:25:15.802Z,1.10
2019-06-08T00:27:44.532Z,1.13
2019-06-08T00:30:13.603Z,1.00
2019-06-08T00:32:42.213Z,1.00
2019-06-08T00:35:11.034Z,1.13
2019-06-08T00:37:39.509Z,1.40
2019-06-08T00:40:09.083Z,1.30
2019-06-08T00:42:37.629Z,1.30
2019-06-08T00:45:09.379Z,1.43
2019-06-08T00:47:47.350Z,0.93
2019-06-08T00:50:09.188Z,0.90
2019-06-08T00:52:37.892Z,1.37
2019-06-08T00:55:09.475Z,1.20
2019-06-08T00:57:38.180Z,1.20
2019-06-08T01:00:10.802Z,1.00
2019-06-08T01:02:37.628Z,0.97
2019-06-08T01:05:07.720Z,1.00
2019-06-08T01:07:36.493Z,1.40
2019-06-08T01:10:08.270Z,1.17
2019-06-08T01:12:37.155Z,1.63
2019-06-08T01:15:07.116Z,1.20
2019-06-08T01:17:35.842Z,0.80
2019-06-08T01:20:07.125Z,1.10
2019-06-08T01:22:35.751Z,1.20
2019-06-08T01:25:05.450Z,0.97
2019-06-08T01:27:34.081Z,1.20
2019-06-08T01:30:03.222Z,0.90
2019-06-08T01:32:31.730Z,1.10
2019-06-08T01:35:00.268Z,1.10
2019-06-08T01:37:29.130Z,0.97
2019-06-08T01:39:57.977Z,0.93
2019-06-08T01:42:27.691Z,1.03
2019-06-08T01:44:56.327Z,1.00
2019-06-08T01:47:26.115Z,1.00
2019-06-08T01:49:54.809Z,1.23
2019-06-08T01:52:24.548Z,1.10
2019-06-08T01:54:53.185Z,1.50
2019-06-08T01:57:23.055Z,1.53
2019-06-08T01:59:51.707Z,1.10
2019-06-08T02:02:20.335Z,1.87
2019-06-08T02:04:49.814Z,1.10
2019-06-08T02:07:18.315Z,1.17
2019-06-08T02:09:46.874Z,1.47
2019-06-08T02:12:15.350Z,1.13
2019-06-08T02:14:43.978Z,1.03
2019-06-08T02:17:12.638Z,1.47
2019-06-08T02:19:41.331Z,1.57
2019-06-08T02:22:10.014Z,1.40
2019-06-08T02:24:39.615Z,1.10
2019-06-08T02:27:08.326Z,1.70
2019-06-08T02:29:36.929Z,1.17
2019-06-08T02:32:05.548Z,1.47
2019-06-08T02:34:35.996Z,1.60
2019-06-08T02:37:05.818Z,1.30
2019-06-08T02:39:35.639Z,1.70
2019-06-08T02:42:04.759Z,1.60
2019-06-08T02:44:34.417Z,1.40
2019-06-08T02:47:03.163Z,1.53
2019-06-08T02:49:33.198Z,1.60
2019-06-08T02:52:01.942Z,1.47
2019-06-08T02:54:32.515Z,1.40
2019-06-08T02:57:05.836Z,1.70
2019-06-08T02:59:38.580Z,1.77
2019-06-08T03:02:08.752Z,1.47
2019-06-08T03:04:38.990Z,1.63
2019-06-08T03:07:10.467Z,1.73
2019-06-08T03:09:41.000Z,2.07
2019-06-08T03:12:09.905Z,1.87
2019-06-08T03:14:42.008Z,1.87
2019-06-08T03:17:10.859Z,1.80
2019-06-08T03:19:39.981Z,1.93
2019-06-08T03:22:10.905Z,1.80
2019-06-08T03:24:41.226Z,1.77
2019-06-08T03:27:10.440Z,1.70
2019-06-08T03:29:41.264Z,2.20
2019-06-08T03:32:09.403Z,1.87
2019-06-08T03:34:45.771Z,1.70
2019-06-08T03:37:08.285Z,1.97
2019-06-08T03:39:37.068Z,1.73
2019-06-08T03:42:06.207Z,2.20
2019-06-08T03:44:36.095Z,2.00
2019-06-08T03:47:05.153Z,2.10
2019-06-08T03:49:44.944Z,2.20
2019-06-08T03:52:04.145Z,2.20
2019-06-08T03:54:32.762Z,2.23
2019-06-08T03:57:01.383Z,2.40
2019-06-08T03:59:30.014Z,2.23
2019-06-08T04:01:58.558Z,2.30
2019-06-08T04:04:27.311Z,2.27
2019-06-08T04:06:55.974Z,2.33
2019-06-08T04:09:24.629Z,2.20
2019-06-08T04:11:53.311Z,1.80
2019-06-08T04:14:21.886Z,1.67
2019-06-08T04:16:50.474Z,1.77
2019-06-08T04:19:19.306Z,2.33
2019-06-08T04:21:47.839Z,2.00
2019-06-08T04:24:16.499Z,2.13
2019-06-08T04:26:47.168Z,2.30
2019-06-08T04:29:16.132Z,1.90
2019-06-08T04:31:46.037Z,2.13
2019-06-08T04:34:14.806Z,2.07
2019-06-08T04:36:44.101Z,1.90
2019-06-08T04:39:13.676Z,2.43
2019-06-08T04:41:42.759Z,1.70
2019-06-08T04:44:13.078Z,2.00
2019-06-08T04:46:43.279Z,1.80
2019-06-08T04:49:11.955Z,2.50
2019-06-08T04:51:40.858Z,2.50
2019-06-08T04:54:13.582Z,2.20
2019-06-08T04:56:40.902Z,2.30
2019-06-08T04:59:09.662Z,2.00
2019-06-08T05:01:38.854Z,2.07
2019-06-08T05:04:07.563Z,2.37
2019-06-08T05:06:36.292Z,2.30
2019-06-08T05:09:07.490Z,2.47
2019-06-08T05:11:36.481Z,2.50
2019-06-08T05:14:08.044Z,2.80
2019-06-08T05:16:36.778Z,2.50
2019-06-08T05:19:05.317Z,2.30
2019-06-08T05:21:33.947Z,2.40
2019-06-08T05:24:02.812Z,2.67
2019-06-08T05:26:31.458Z,2.60
2019-06-08T05:29:00.187Z,2.87
2019-06-08T05:31:28.885Z,2.40
2019-06-08T05:33:57.574Z,2.57
2019-06-08T05:36:29.358Z,2.60
2019-06-08T05:38:57.979Z,2.60
2019-06-08T05:41:26.620Z,2.90
2019-06-08T05:43:55.291Z,2.50
2019-06-08T05:46:23.856Z,2.50
2019-06-08T05:48:52.476Z,2.63
2019-06-08T05:51:21.229Z,2.37
2019-06-08T05:53:50.250Z,2.00
2019-06-08T05:56:19.338Z,2.60
2019-06-08T05:58:48.247Z,2.00
2019-06-08T06:01:17.876Z,2.27
2019-06-08T06:03:46.650Z,2.13
2019-06-08T06:06:24.581Z,2.50
2019-06-08T06:08:53.278Z,2.50
2019-06-08T06:11:22.025Z,2.60
2019-06-08T06:13:51.526Z,2.10
2019-06-08T06:16:20.326Z,2.20
2019-06-08T06:18:49.201Z,1.57
2019-06-08T06:21:17.814Z,1.97
2019-06-08T06:23:47.330Z,2.40
2019-06-08T06:26:16.598Z,2.20
2019-06-08T06:28:49.891Z,2.17
2019-06-08T06:31:18.658Z,2.30
2019-06-08T06:33:47.945Z,2.20
2019-06-08T06:36:16.591Z,2.37
2019-06-08T06:38:45.886Z,1.97
2019-06-08T06:41:14.757Z,2.27
2019-06-08T06:43:43.952Z,2.70
2019-06-08T06:46:22.536Z,2.47
2019-06-08T06:48:57.538Z,2.40
2019-06-08T06:51:26.973Z,1.70
2019-06-08T06:53:55.753Z,2.60
2019-06-08T06:56:25.224Z,2.10
2019-06-08T06:58:53.935Z,2.00
2019-06-08T07:01:22.673Z,2.43
2019-06-08T07:03:52.177Z,2.67
2019-06-08T07:06:20.961Z,2.23
2019-06-08T07:08:50.354Z,2.27
2019-06-08T07:11:23.475Z,2.73
2019-06-08T07:13:56.837Z,2.10
2019-06-08T07:16:36.089Z,2.20
2019-06-08T07:18:58.950Z,2.50
2019-06-08T07:21:41.335Z,2.30
2019-06-08T07:24:02.918Z,2.33
2019-06-08T07:26:31.592Z,2.20
2019-06-08T07:29:00.370Z,2.00
2019-06-08T07:31:44.817Z,2.13
2019-06-08T07:34:08.838Z,2.20
2019-06-08T07:36:37.478Z,2.47
2019-06-08T07:39:07.799Z,2.57
2019-06-08T07:41:41.423Z,2.33
2019-06-08T07:44:10.214Z,1.97
2019-06-08T07:46:38.887Z,2.07
2019-06-08T07:49:07.473Z,2.20
2019-06-08T07:51:36.103Z,2.10
2019-06-08T07:54:04.775Z,2.20
2019-06-08T07:56:33.513Z,2.30
2019-06-08T07:59:02.224Z,2.80
2019-06-08T08:01:36.118Z,1.97
2019-06-08T08:04:01.469Z,2.83
2019-06-08T08:06:30.732Z,4.03
2019-06-08T08:08:59.318Z,2.50
2019-06-08T08:11:28.263Z,2.53
2019-06-08T08:13:57.586Z,2.70
2019-06-08T08:16:37.114Z,2.37
2019-06-08T08:19:05.377Z,2.00
2019-06-08T08:21:40.967Z,2.40
2019-06-08T08:24:09.769Z,1.97
2019-06-08T08:26:39.168Z,2.23
2019-06-08T08:29:08.597Z,2.27
2019-06-08T08:31:37.514Z,2.30
2019-06-08T08:34:08.919Z,2.20
2019-06-08T08:36:38.065Z,2.00
2019-06-08T08:39:08.754Z,1.70
2019-06-08T08:41:39.055Z,1.73
2019-06-08T08:44:12.752Z,2.10
2019-06-08T08:46:41.337Z,1.80
2019-06-08T08:49:13.072Z,2.13
2019-06-08T08:51:40.889Z,2.30
2019-06-08T08:54:09.673Z,2.40
2019-06-08T08:56:38.595Z,2.50
2019-06-08T08:59:10.450Z,2.10
2019-06-08T09:01:39.190Z,1.90
2019-06-08T09:04:08.857Z,2.27
2019-06-08T09:06:38.195Z,2.63
2019-06-08T09:09:08.863Z,2.37
2019-06-08T09:11:38.352Z,2.63
2019-06-08T09:14:14.087Z,2.30
2019-06-08T09:16:40.294Z,2.33
2019-06-08T09:19:08.893Z,2.80
2019-06-08T09:21:38.355Z,2.40
2019-06-08T09:24:07.763Z,2.20
2019-06-08T09:26:38.218Z,2.27
2019-06-08T09:29:10.837Z,2.00
2019-06-08T09:31:39.063Z,2.40
2019-06-08T09:34:14.156Z,2.30
2019-06-08T09:36:40.796Z,3.33
2019-06-08T09:39:13.548Z,2.00
2019-06-08T09:41:47.914Z,2.30
2019-06-08T09:44:18.562Z,2.30
2019-06-08T09:46:48.110Z,1.90
2019-06-08T09:49:18.852Z,2.93
2019-06-08T09:51:48.675Z,2.23
2019-06-08T09:54:18.449Z,2.03
2019-06-08T09:56:47.928Z,3.30
2019-06-08T09:59:18.815Z,2.13
2019-06-08T10:01:47.561Z,2.03
2019-06-08T10:04:16.402Z,1.90
2019-06-08T10:06:56.200Z,1.93
2019-06-08T10:09:28.263Z,2.33
2019-06-08T10:11:59.559Z,2.40
2019-06-08T10:14:28.263Z,2.23
2019-06-08T10:17:00.712Z,2.37
2019-06-08T10:19:28.940Z,2.33
2019-06-08T10:21:58.780Z,1.83
2019-06-08T10:24:27.353Z,1.93
2019-06-08T10:26:59.304Z,2.03
2019-06-08T10:29:30.989Z,2.27
2019-06-08T10:31:59.700Z,2.17
2019-06-08T10:34:29.699Z,2.00
2019-06-08T10:37:03.337Z,2.10
2019-06-08T10:39:28.789Z,2.27
2019-06-08T10:41:59.864Z,1.70
2019-06-08T10:44:28.384Z,2.10
2019-06-08T10:47:00.520Z,1.60
2019-06-08T10:49:28.621Z,2.20
2019-06-08T10:52:01.174Z,2.30
2019-06-08T10:54:28.023Z,2.10
2019-06-08T10:56:59.666Z,1.70
2019-06-08T10:59:28.880Z,2.00
2019-06-08T11:02:00.930Z,1.70
2019-06-08T11:04:28.655Z,1.63
2019-06-08T11:07:01.072Z,2.00
2019-06-08T11:09:28.572Z,1.70
2019-06-08T11:11:58.369Z,2.00
2019-06-08T11:14:27.655Z,2.60
2019-06-08T11:16:56.283Z,2.50
2019-06-08T11:19:26.539Z,2.60
2019-06-08T11:21:58.049Z,2.57
2019-06-08T11:24:25.687Z,2.27
2019-06-08T11:26:57.621Z,2.50
2019-06-08T11:29:27.560Z,2.80
2019-06-08T11:31:55.294Z,5.00
2019-06-08T11:34:34.349Z,5.67
2019-06-08T11:37:03.612Z,2.87
2019-06-08T11:39:41.081Z,2.33
2019-06-08T11:42:12.825Z,2.10
2019-06-08T11:44:40.405Z,2.23
2019-06-08T11:47:12.291Z,2.70
2019-06-08T11:49:39.338Z,2.20
2019-06-08T11:52:09.064Z,3.23
2019-06-08T11:54:40.851Z,3.03
2019-06-08T11:57:11.111Z,3.40
2019-06-08T11:59:40.322Z,3.93
2019-06-08T12:02:11.121Z,4.00
2019-06-08T12:04:39.286Z,4.23
2019-06-08T12:07:09.530Z,3.70
2019-06-08T12:09:38.047Z,2.67
2019-06-08T12:12:13.569Z,2.00
2019-06-08T12:14:40.534Z,1.83
2019-06-08T12:17:12.472Z,1.80
2019-06-08T12:19:39.110Z,2.10
2019-06-08T12:22:08.787Z,2.57
2019-06-08T12:24:42.070Z,2.10
2019-06-08T12:27:21.731Z,2.03
2019-06-08T12:29:38.646Z,1.80
2019-06-08T12:32:09.381Z,1.40
2019-06-08T12:34:38.404Z,1.77
2019-06-08T12:37:08.794Z,1.80
2019-06-08T12:39:39.265Z,1.80
2019-06-08T12:42:13.880Z,2.00
2019-06-08T12:44:38.430Z,2.43
2019-06-08T12:47:10.617Z,2.20
2019-06-08T12:49:39.982Z,2.03
2019-06-08T12:52:09.908Z,2.13
2019-06-08T12:54:38.207Z,2.10
2019-06-08T12:57:10.165Z,2.30
2019-06-08T12:59:38.474Z,1.93
2019-06-08T13:02:13.967Z,1.70
2019-06-08T13:04:39.191Z,2.03
2019-06-08T13:07:09.702Z,1.63
2019-06-08T13:09:38.500Z,1.90
2019-06-08T13:12:08.045Z,2.00
2019-06-08T13:14:38.572Z,2.00
2019-06-08T13:17:08.649Z,1.77
2019-06-08T13:19:38.681Z,1.93
2019-06-08T13:22:08.800Z,2.07
2019-06-08T13:24:37.872Z,2.30
2019-06-08T13:27:07.001Z,2.17
2019-06-08T13:29:35.490Z,3.30
2019-06-08T13:32:04.179Z,3.60
2019-06-08T13:34:32.901Z,3.67
2019-06-08T13:37:01.517Z,3.10
2019-06-08T13:39:30.584Z,2.40
2019-06-08T13:41:59.251Z,2.13
2019-06-08T13:44:28.012Z,1.80
2019-06-08T13:46:57.861Z,1.17
2019-06-08T13:49:29.606Z,1.60
2019-06-08T13:51:58.375Z,1.50
2019-06-08T13:54:28.525Z,1.43
2019-06-08T13:56:58.932Z,1.60
2019-06-08T13:59:30.801Z,2.07
2019-06-08T14:01:58.736Z,1.33
2019-06-08T14:04:27.623Z,1.30
2019-06-08T14:06:57.943Z,1.63
2019-06-08T14:09:28.587Z,1.77
2019-06-08T14:12:00.859Z,2.10
2019-06-08T14:14:29.382Z,1.70
2019-06-08T14:16:58.710Z,2.03
2019-06-08T14:19:31.071Z,1.93
2019-06-08T14:21:58.119Z,2.00
2019-06-08T14:24:32.133Z,1.90
2019-06-08T14:26:58.433Z,1.90
2019-06-08T14:29:28.845Z,2.33
2019-06-08T14:31:57.894Z,1.93
2019-06-08T14:34:29.046Z,1.93
2019-06-08T14:36:59.436Z,2.20
2019-06-08T14:39:30.017Z,2.20
2019-06-08T14:41:57.927Z,1.97
2019-06-08T14:44:28.754Z,2.03
2019-06-08T14:46:57.930Z,1.33
2019-06-08T14:49:33.859Z,1.70
2019-06-08T14:51:57.918Z,1.70
2019-06-08T14:54:32.764Z,2.03
2019-06-08T14:56:57.795Z,1.80
2019-06-08T14:59:29.598Z,1.47
2019-06-08T15:01:56.963Z,1.87
2019-06-08T15:04:28.526Z,1.33
2019-06-08T15:06:58.460Z,1.43
2019-06-08T15:09:26.157Z,1.77
2019-06-08T15:11:58.259Z,1.20
2019-06-08T15:14:29.336Z,1.50
2019-06-08T15:16:58.889Z,1.00
2019-06-08T15:19:29.032Z,1.50
2019-06-08T15:21:57.462Z,1.20
2019-06-08T15:24:29.261Z,1.07
2019-06-08T15:26:58.318Z,1.40
2019-06-08T15:29:29.069Z,1.47
2019-06-08T15:31:58.197Z,1.40
2019-06-08T15:34:29.596Z,1.40
2019-06-08T15:36:57.615Z,1.20
2019-06-08T15:39:29.056Z,1.30
2019-06-08T15:41:59.949Z,1.00
2019-06-08T15:44:29.085Z,1.50
2019-06-08T15:46:58.495Z,1.60
2019-06-08T15:49:30.363Z,1.53
2019-06-08T15:51:57.983Z,1.40
2019-06-08T15:54:32.260Z,1.10
2019-06-08T15:56:58.495Z,1.43
2019-06-08T15:59:31.202Z,1.30
2019-06-08T16:01:57.881Z,1.60
2019-06-08T16:04:27.697Z,1.37
2019-06-08T16:06:56.590Z,1.40
2019-06-08T16:09:25.949Z,1.70
2019-06-08T16:11:54.586Z,1.30
2019-06-08T16:14:24.819Z,1.30
2019-06-08T16:16:53.800Z,1.63
2019-06-08T16:19:22.331Z,1.37
2019-06-08T16:21:51.287Z,1.40
2019-06-08T16:24:19.998Z,1.60
2019-06-08T16:26:53.410Z,1.63
2019-06-08T16:29:18.750Z,1.30
2019-06-08T16:31:47.458Z,1.33
2019-06-08T16:34:15.990Z,1.30
2019-06-08T16:36:44.564Z,1.37
2019-06-08T16:39:13.158Z,1.20
2019-06-08T16:41:41.738Z,0.87
2019-06-08T16:44:10.308Z,1.57
2019-06-08T16:46:38.951Z,1.33
2019-06-08T16:49:07.494Z,1.40
2019-06-08T16:51:36.118Z,1.40
2019-06-08T16:54:05.119Z,1.20
2019-06-08T16:56:34.175Z,1.30
2019-06-08T16:59:03.009Z,1.27
2019-06-08T17:01:32.912Z,1.30
2019-06-08T17:04:01.879Z,1.10
2019-06-08T17:06:31.170Z,1.17
2019-06-08T17:08:59.890Z,1.53
2019-06-08T17:11:29.583Z,1.10
2019-06-08T17:13:58.636Z,1.33
2019-06-08T17:16:30.013Z,1.30
2019-06-08T17:18:59.017Z,1.40
2019-06-08T17:21:28.012Z,0.93
2019-06-08T17:23:57.656Z,1.17
2019-06-08T17:26:26.788Z,1.47
2019-06-08T17:28:55.927Z,1.63
2019-06-08T17:31:26.632Z,1.30
2019-06-08T17:33:57.858Z,1.40
2019-06-08T17:36:26.492Z,1.23
2019-06-08T17:38:55.556Z,1.40
2019-06-08T17:41:24.391Z,1.37
2019-06-08T17:43:53.137Z,1.50
2019-06-08T17:46:21.908Z,1.60
2019-06-08T17:48:50.683Z,1.17
2019-06-08T17:51:19.413Z,1.63
2019-06-08T17:53:48.235Z,1.30
2019-06-08T17:56:17.954Z,1.40
2019-06-08T17:58:46.726Z,1.50
2019-06-08T18:01:16.171Z,1.70
2019-06-08T18:03:45.121Z,1.50
2019-06-08T18:06:13.826Z,1.97
2019-06-08T18:09:07.890Z,1.57
2019-06-08T18:11:40.127Z,1.70
2019-06-08T18:14:07.915Z,1.50
2019-06-08T18:16:39.396Z,1.00
2019-06-08T18:19:08.846Z,1.40
2019-06-08T18:21:40.075Z,1.30
2019-06-08T18:24:08.323Z,1.30
2019-06-08T18:26:40.252Z,2.00
2019-06-08T18:29:09.072Z,2.00
2019-06-08T18:31:40.286Z,1.63
2019-06-08T18:34:08.473Z,1.70
2019-06-08T18:36:40.382Z,1.90
2019-06-08T18:39:08.712Z,1.73
2019-06-08T18:41:39.346Z,1.67
2019-06-08T18:44:08.470Z,1.97
2019-06-08T18:46:37.983Z,1.57
2019-06-08T18:49:08.862Z,1.77
2019-06-08T18:51:40.692Z,1.30
2019-06-08T18:54:14.769Z,1.60
2019-06-08T18:56:48.858Z,1.90
2019-06-08T18:59:18.464Z,1.50
2019-06-08T19:01:50.880Z,1.83
2019-06-08T19:04:19.966Z,1.87
2019-06-08T19:06:50.156Z,1.40
2019-06-08T19:09:19.179Z,1.57
2019-06-08T19:11:57.325Z,1.73
2019-06-08T19:14:28.468Z,2.47
2019-06-08T19:16:58.133Z,1.70
2019-06-08T19:19:31.456Z,2.03
2019-06-08T19:22:02.795Z,1.83
2019-06-08T19:24:31.686Z,1.83
2019-06-08T19:27:00.866Z,1.67
2019-06-08T19:29:30.175Z,1.60
2019-06-08T19:32:00.598Z,2.03
2019-06-08T19:34:33.214Z,1.60
2019-06-08T19:37:01.134Z,1.57
2019-06-08T19:39:33.252Z,1.70
2019-06-08T19:42:02.462Z,1.90
2019-06-08T19:44:32.118Z,1.90
2019-06-08T19:47:01.357Z,1.97
2019-06-08T19:49:30.545Z,1.47
2019-06-08T19:51:59.508Z,2.33
2019-06-08T19:54:28.520Z,2.13
2019-06-08T19:56:57.715Z,2.30
2019-06-08T19:59:33.450Z,2.30
2019-06-08T20:02:08.637Z,2.30
2019-06-08T20:04:38.754Z,1.70
2019-06-08T20:07:20.392Z,2.37
2019-06-08T20:09:49.704Z,2.50
2019-06-08T20:12:19.686Z,2.00
2019-06-08T20:14:50.997Z,2.13
2019-06-08T20:17:19.483Z,1.87
2019-06-08T20:19:50.468Z,2.00
2019-06-08T20:22:19.040Z,2.20
2019-06-08T20:24:52.083Z,2.67
2019-06-08T20:27:18.468Z,1.90
2019-06-08T20:29:48.257Z,2.17
2019-06-08T20:32:24.066Z,1.93
2019-06-08T20:34:54.207Z,1.80
2019-06-08T20:37:28.238Z,2.13
2019-06-08T20:40:07.105Z,1.90
2019-06-08T20:42:28.918Z,1.97
2019-06-08T20:45:02.319Z,2.03
2019-06-08T20:47:35.436Z,2.10
2019-06-08T20:50:03.750Z,1.77
2019-06-08T20:52:33.702Z,1.80
2019-06-08T20:55:04.169Z,2.03
2019-06-08T20:57:33.060Z,2.07
2019-06-08T21:00:08.442Z,2.37
2019-06-08T21:02:32.680Z,2.00
2019-06-08T21:05:01.487Z,2.70
2019-06-08T21:07:30.492Z,2.10
2019-06-08T21:09:59.508Z,2.50
2019-06-08T21:12:28.870Z,2.77
2019-06-08T21:14:57.429Z,2.60
2019-06-08T21:17:27.542Z,2.20
2019-06-08T21:19:57.937Z,1.87
2019-06-08T21:22:27.761Z,1.93
2019-06-08T21:24:59.755Z,1.90
2019-06-08T21:27:27.690Z,2.10
2019-06-08T21:30:06.042Z,1.67
2019-06-08T21:32:27.820Z,2.30
2019-06-08T21:34:59.981Z,2.33
2019-06-08T21:37:28.054Z,2.43
2019-06-08T21:40:03.164Z,2.50
2019-06-08T21:42:27.799Z,2.30
2019-06-08T21:45:00.001Z,2.23
2019-06-08T21:47:27.184Z,2.97
2019-06-08T21:49:59.217Z,2.63
2019-06-08T21:52:26.043Z,2.47
2019-06-08T21:54:54.653Z,2.33
2019-06-08T21:57:23.206Z,2.27
2019-06-08T22:00:06.991Z,2.37
2019-06-08T22:02:27.262Z,2.17
2019-06-08T22:05:00.776Z,2.57
2019-06-08T22:07:28.255Z,2.20
2019-06-08T22:09:58.779Z,2.30
2019-06-08T22:12:26.738Z,1.93
2019-06-08T22:14:55.236Z,2.50
2019-06-08T22:17:23.693Z,2.43
2019-06-08T22:19:55.049Z,1.97
2019-06-08T22:22:24.372Z,2.43
2019-06-08T22:24:53.457Z,2.70
2019-06-08T22:27:22.717Z,2.03
2019-06-08T22:29:53.371Z,2.37
2019-06-08T22:32:22.647Z,2.33
2019-06-08T22:34:52.783Z,2.63
2019-06-08T22:37:21.928Z,1.97
2019-06-08T22:39:51.429Z,3.40
2019-06-08T22:42:20.313Z,2.30
2019-06-08T22:44:49.737Z,3.27
2019-06-08T22:47:18.541Z,2.80
2019-06-08T22:49:47.679Z,3.23
2019-06-08T22:52:18.502Z,2.63
2019-06-08T22:54:49.519Z,3.80
2019-06-08T22:57:18.401Z,2.40
2019-06-08T22:59:47.712Z,3.23
2019-06-08T23:02:18.259Z,2.53
2019-06-08T23:04:47.552Z,2.80
2019-06-08T23:07:28.375Z,3.10
2019-06-08T23:09:47.858Z,2.70
2019-06-08T23:12:18.178Z,3.60
2019-06-08T23:14:47.181Z,2.53
2019-06-08T23:17:17.862Z,3.00
2019-06-08T23:19:48.071Z,3.47
2019-06-08T23:22:17.726Z,3.10
2019-06-08T23:24:47.720Z,2.70
2019-06-08T23:27:17.585Z,2.37
2019-06-08T23:29:47.499Z,3.20
2019-06-08T23:32:18.202Z,2.50
2019-06-08T23:34:47.791Z,2.33
2019-06-08T23:37:18.264Z,3.13
2019-06-08T23:39:47.210Z,2.27
2019-06-08T23:42:17.715Z,2.70
2019-06-08T23:44:47.156Z,2.97
2019-06-08T23:47:17.836Z,2.60
2019-06-08T23:49:47.424Z,2.73
2019-06-08T23:52:17.806Z,2.67
2019-06-08T23:54:47.779Z,3.30
2019-06-08T23:57:18.032Z,2.63
2019-06-08T23:59:47.795Z,3.17
